Time;durP1;ratioP1;P1;durP2;ratioP2;P2;SDS_P1;SDS_P2;PMS_P1;PMS_P2;Temp;Humidity;BMP_temperature;BMP_pressure;BME280_temperature;BME280_humidity;BME280_pressure;Samples;Min_cycle;Max_cycle;Signal;HPM_P1;HPM_P2
2023/08/06 00:01:14;;;;;;;0.83;0.60;;;;;;;25.72;71.13;94041.19;5113551;28;20882;-57
2023/08/06 00:03:43;;;;;;;0.80;0.80;;;;;;;25.73;71.54;94040.00;5113252;28;20436;-57
2023/08/06 00:06:11;;;;;;;0.70;0.63;;;;;;;25.86;71.55;94049.22;5113579;28;20495;-57
2023/08/06 00:08:40;;;;;;;0.87;0.87;;;;;;;25.80;72.68;94043.47;5113167;28;20439;-57
2023/08/06 00:11:08;;;;;;;0.67;0.67;;;;;;;25.81;73.42;94049.66;5113541;28;20985;-57
2023/08/06 00:13:36;;;;;;;0.50;0.40;;;;;;;25.71;73.61;94042.34;5112873;27;20442;-57
2023/08/06 00:16:13;;;;;;;1.03;0.60;;;;;;;25.76;72.39;94036.50;5113099;28;20782;-57
2023/08/06 00:18:42;;;;;;;3.83;1.03;;;;;;;25.75;74.11;94030.28;5112872;28;20439;-57
2023/08/06 00:21:12;;;;;;;0.60;0.60;;;;;;;25.32;78.20;94036.28;5112739;28;20527;-56
2023/08/06 00:23:40;;;;;;;0.60;0.60;;;;;;;25.06;81.96;94043.72;5113107;28;20454;-56
2023/08/06 00:26:09;;;;;;;0.90;0.60;;;;;;;25.32;79.93;94023.50;5112753;28;20460;-56
2023/08/06 00:28:37;;;;;;;1.40;1.30;;;;;;;25.33;79.94;94026.97;5112746;28;20439;-57
2023/08/06 00:31:05;;;;;;;0.60;0.60;;;;;;;24.91;85.55;94036.78;5112544;28;20447;-57
2023/08/06 00:33:35;;;;;;;1.13;0.90;;;;;;;25.05;84.11;94035.97;5112605;28;20496;-57
2023/08/06 00:36:04;;;;;;;0.63;0.63;;;;;;;25.04;84.02;94024.38;5112790;28;20957;-57
2023/08/06 00:38:32;;;;;;;0.60;0.60;;;;;;;25.19;83.21;94027.81;5112571;28;20464;-56
2023/08/06 00:41:00;;;;;;;0.77;0.70;;;;;;;25.44;80.54;94033.13;5111626;28;20482;-56
2023/08/06 00:43:29;;;;;;;0.50;0.30;;;;;;;25.55;80.58;94021.09;5112591;28;20496;-56
2023/08/06 00:45:57;;;;;;;1.77;0.87;;;;;;;25.46;81.33;94025.41;5112551;27;20918;-56
2023/08/06 00:48:26;;;;;;;2.00;1.33;;;;;;;25.17;82.65;94011.16;5112094;28;20863;-57
2023/08/06 00:50:55;;;;;;;0.77;0.77;;;;;;;25.45;80.36;94018.41;5112668;28;20443;-56
2023/08/06 00:53:24;;;;;;;0.60;0.50;;;;;;;25.55;80.11;94025.75;5112520;28;20527;-56
2023/08/06 00:55:53;;;;;;;0.63;0.53;;;;;;;25.47;79.14;94024.25;5111657;28;20439;-56
2023/08/06 00:58:21;;;;;;;0.60;0.50;;;;;;;25.54;78.24;94021.50;5111672;28;20949;-56
2023/08/06 01:00:50;;;;;;;0.60;0.50;;;;;;;25.53;79.52;94028.06;5111521;28;20462;-56
2023/08/06 01:03:19;;;;;;;1.13;1.07;;;;;;;25.60;77.88;94026.09;5112238;28;20561;-56
2023/08/06 01:05:48;;;;;;;0.40;0.30;;;;;;;25.67;77.61;94014.44;5111984;28;20444;-56
2023/08/06 01:08:29;;;;;;;0.50;0.40;;;;;;;25.69;76.80;94009.41;5112056;28;20466;-56
2023/08/06 01:11:09;;;;;;;0.50;0.30;;;;;;;25.73;75.82;94016.34;5112294;28;20930;-56
2023/08/06 01:13:46;;;;;;;0.60;0.60;;;;;;;25.50;78.17;94009.91;5111840;28;20435;-56
2023/08/06 01:16:18;;;;;;;0.90;0.80;;;;;;;25.51;77.84;93998.63;5112117;28;20438;-56
2023/08/06 01:18:49;;;;;;;0.77;0.77;;;;;;;25.27;79.96;94015.00;5085682;28;20877;-55
2023/08/06 01:21:19;;;;;;;1.07;0.60;;;;;;;25.27;80.95;94018.50;5111174;28;20846;-56
2023/08/06 01:23:49;;;;;;;0.50;0.50;;;;;;;25.36;81.82;94015.34;5112279;28;20432;-56
2023/08/06 01:26:25;;;;;;;0.90;0.40;;;;;;;25.35;82.59;94005.66;5111586;28;20439;-56
2023/08/06 01:29:03;;;;;;;0.63;0.60;;;;;;;25.52;80.44;93997.47;5112037;28;20442;-56
2023/08/06 01:31:35;;;;;;;2.30;0.60;;;;;;;25.75;77.42;94011.28;5111786;28;20530;-56
2023/08/06 01:34:06;;;;;;;0.50;0.33;;;;;;;25.86;76.58;94005.81;5111852;28;20436;-56
2023/08/06 01:36:36;;;;;;;0.60;0.50;;;;;;;25.71;77.46;94012.47;5112192;28;20447;-56
2023/08/06 01:39:06;;;;;;;0.50;0.40;;;;;;;25.62;77.38;94010.22;5111753;28;20475;-56
2023/08/06 01:41:34;;;;;;;0.50;0.40;;;;;;;25.50;77.83;94013.34;5111861;28;20474;-56
2023/08/06 01:44:02;;;;;;;1.20;0.50;;;;;;;25.57;76.39;94015.28;5111545;28;20497;-56
2023/08/06 01:46:31;;;;;;;0.53;0.53;;;;;;;25.27;77.84;94008.38;5112262;28;20432;-56
2023/08/06 01:48:59;;;;;;;1.80;0.93;;;;;;;24.89;80.00;94025.56;5108979;28;20529;-56
2023/08/06 01:51:28;;;;;;;0.63;0.60;;;;;;;24.74;79.93;94028.66;5101216;28;20489;-56
2023/08/06 01:53:57;;;;;;;0.90;0.60;;;;;;;24.67;83.20;94029.44;5114308;28;20471;-56
2023/08/06 01:56:26;;;;;;;1.90;0.87;;;;;;;24.60;86.92;94015.91;5115861;28;20497;-56
2023/08/06 01:58:54;;;;;;;3.20;1.00;;;;;;;24.05;97.89;94007.38;5115288;28;20467;-57
2023/08/06 02:01:22;;;;;;;0.50;0.40;;;;;;;23.75;100.00;94015.84;5104401;28;20525;-56
2023/08/06 02:03:51;;;;;;;0.80;0.70;;;;;;;23.64;100.00;94011.56;5113887;28;20438;-56
2023/08/06 02:06:19;;;;;;;6.77;0.90;;;;;;;23.44;100.00;94013.81;5115605;28;20808;-56
2023/08/06 02:08:47;;;;;;;0.83;0.83;;;;;;;23.27;100.00;94017.22;5115078;28;20542;-56
2023/08/06 02:11:18;;;;;;;0.83;0.70;;;;;;;23.59;100.00;94007.28;5115739;28;20929;-56
2023/08/06 02:13:47;;;;;;;0.70;0.70;;;;;;;24.08;100.00;94005.84;5115347;28;20921;-56
2023/08/06 02:16:15;;;;;;;0.67;0.40;;;;;;;24.33;96.95;93995.81;5115809;28;20443;-56
2023/08/06 02:18:44;;;;;;;0.50;0.30;;;;;;;23.77;100.00;94000.00;5114939;28;20440;-57
2023/08/06 02:21:12;;;;;;;1.43;0.73;;;;;;;23.60;100.00;94002.66;5115242;28;20471;-56
2023/08/06 02:23:40;;;;;;;0.60;0.50;;;;;;;23.66;100.00;93991.06;5115554;28;20431;-55
2023/08/06 02:26:09;;;;;;;1.47;1.00;;;;;;;23.58;100.00;93994.91;5114910;28;20440;-56
2023/08/06 02:28:38;;;;;;;6.23;0.90;;;;;;;23.40;100.00;93999.53;5115104;28;20475;-55
2023/08/06 02:31:07;;;;;;;0.50;0.33;;;;;;;23.14;100.00;93938.38;5115125;28;20439;-56
2023/08/06 02:33:36;;;;;;;0.60;0.60;;;;;;;23.71;100.00;94014.25;5115011;28;20442;-56
2023/08/06 02:36:05;;;;;;;0.93;0.43;;;;;;;24.13;99.03;94008.97;5114741;28;20462;-56
2023/08/06 02:38:34;;;;;;;1.10;0.53;;;;;;;23.91;100.00;94010.81;5115478;28;20526;-56
2023/08/06 02:41:04;;;;;;;1.07;1.07;;;;;;;23.43;100.00;94014.97;5114798;28;20424;-56
2023/08/06 02:43:33;;;;;;;0.90;0.90;;;;;;;23.43;100.00;94028.47;5115280;28;20867;-55
2023/08/06 02:46:03;;;;;;;1.73;0.77;;;;;;;23.28;100.00;94026.84;5114706;28;20432;-55
2023/08/06 02:48:31;;;;;;;0.67;0.67;;;;;;;23.24;100.00;94026.06;5114664;28;20483;-55
2023/08/06 02:51:00;;;;;;;0.50;0.47;;;;;;;23.38;100.00;94015.34;5114451;28;20443;-55
2023/08/06 02:53:29;;;;;;;0.43;0.33;;;;;;;23.90;100.00;94020.13;5115086;28;20439;-55
2023/08/06 02:55:57;;;;;;;0.60;0.40;;;;;;;24.16;100.00;94023.66;5114284;28;20428;-56
2023/08/06 02:58:25;;;;;;;0.73;0.73;;;;;;;24.23;100.00;94023.66;5114929;28;20468;-55
2023/08/06 03:01:06;;;;;;;0.90;0.70;;;;;;;24.25;100.00;94024.03;5088182;28;20440;-56
2023/08/06 03:03:35;;;;;;;0.60;0.50;;;;;;;24.40;100.00;94012.03;5113694;28;20479;-56
2023/08/06 03:06:04;;;;;;;0.50;0.40;;;;;;;24.41;100.00;94024.44;5113827;28;20490;-56
2023/08/06 03:08:32;;;;;;;0.40;0.30;;;;;;;24.50;97.98;94016.69;5113895;28;20444;-56
2023/08/06 03:11:00;;;;;;;0.50;0.40;;;;;;;24.67;95.87;94039.50;5114403;28;20799;-56
2023/08/06 03:13:29;;;;;;;0.50;0.33;;;;;;;24.71;94.69;94022.09;5100115;28;20538;-56
2023/08/06 03:15:58;;;;;;;0.60;0.60;;;;;;;24.73;94.30;94025.16;5114208;28;20496;-56
2023/08/06 03:18:28;;;;;;;1.87;0.80;;;;;;;24.60;94.70;94013.19;5114045;28;20929;-56
2023/08/06 03:20:56;;;;;;;0.70;0.67;;;;;;;24.48;95.33;94014.38;5114254;28;20473;-56
2023/08/06 03:23:25;;;;;;;5.60;0.97;;;;;;;24.49;94.83;94020.53;5114005;27;20475;-56
2023/08/06 03:25:53;;;;;;;1.47;1.47;;;;;;;24.13;97.73;94002.78;5114451;28;20432;-55
2023/08/06 03:28:22;;;;;;;0.87;0.87;;;;;;;24.45;95.46;94017.06;5114150;28;20768;-56
2023/08/06 03:31:00;;;;;;;1.10;0.60;;;;;;;24.51;94.39;94023.66;5114146;27;20432;-55
2023/08/06 03:33:30;;;;;;;0.97;0.97;;;;;;;24.43;95.08;94030.22;5113889;28;20478;-56
2023/08/06 03:35:59;;;;;;;0.90;0.90;;;;;;;24.46;94.52;94035.63;5113903;28;20539;-56
2023/08/06 03:38:27;;;;;;;0.60;0.60;;;;;;;24.48;93.41;94024.44;5113795;28;20443;-56
2023/08/06 03:40:56;;;;;;;0.97;0.50;;;;;;;24.52;93.41;94036.03;5113033;28;20443;-56
2023/08/06 03:43:24;;;;;;;1.40;0.73;;;;;;;24.47;93.38;94039.13;5113385;28;21004;-56
2023/08/06 03:45:52;;;;;;;1.53;1.43;;;;;;;24.54;91.86;94036.44;5113454;28;20921;-56
2023/08/06 03:48:20;;;;;;;0.50;0.30;;;;;;;24.36;92.94;94028.28;5113408;28;20476;-56
2023/08/06 03:50:50;;;;;;;0.80;0.80;;;;;;;24.15;95.67;94032.94;5113654;28;20443;-56
2023/08/06 03:53:18;;;;;;;0.60;0.60;;;;;;;24.30;94.34;94027.13;5113587;28;20444;-55
2023/08/06 03:55:47;;;;;;;0.60;0.60;;;;;;;24.29;94.44;94011.25;5113070;27;20526;-56
2023/08/06 03:58:15;;;;;;;1.33;1.23;;;;;;;24.01;96.69;94022.81;5113422;28;20945;-55
2023/08/06 04:00:43;;;;;;;0.63;0.60;;;;;;;24.06;95.75;94029.81;5112843;28;21022;-55
2023/08/06 04:03:12;;;;;;;0.80;0.60;;;;;;;24.18;94.86;94029.47;5113236;28;20556;-56
2023/08/06 04:05:40;;;;;;;0.70;0.50;;;;;;;24.14;95.29;94039.50;5113009;28;20519;-55
2023/08/06 04:08:10;;;;;;;0.80;0.77;;;;;;;24.16;94.77;94054.19;5113157;28;20443;-55
2023/08/06 04:10:38;;;;;;;0.60;0.50;;;;;;;24.08;94.13;94049.94;5086885;28;20435;-55
2023/08/06 04:13:07;;;;;;;1.20;0.90;;;;;;;24.01;93.76;94053.38;5113112;28;20980;-56
2023/08/06 04:15:35;;;;;;;0.50;0.50;;;;;;;24.15;91.92;94054.59;5112633;28;20823;-55
2023/08/06 04:18:03;;;;;;;1.07;0.97;;;;;;;24.22;92.13;94049.94;5111269;28;20527;-55
2023/08/06 04:20:32;;;;;;;0.50;0.50;;;;;;;24.50;88.35;94041.06;5113226;28;21014;-55
2023/08/06 04:23:06;;;;;;;0.50;0.40;;;;;;;24.72;89.73;94031.75;5112589;28;20467;-56
2023/08/06 04:25:36;;;;;;;0.70;0.63;;;;;;;24.92;86.66;94043.75;5113033;27;20451;-56
2023/08/06 04:28:04;;;;;;;0.80;0.80;;;;;;;24.55;87.27;94044.16;5113041;28;20825;-56
2023/08/06 04:30:33;;;;;;;0.90;0.90;;;;;;;24.01;90.93;94053.38;5112788;28;20555;-56
2023/08/06 04:33:01;;;;;;;1.00;1.00;;;;;;;23.44;98.45;94042.78;5112569;28;20511;-56
2023/08/06 04:35:30;;;;;;;1.13;0.93;;;;;;;23.13;100.00;94046.88;5112485;28;20497;-56
2023/08/06 04:37:58;;;;;;;1.87;1.77;;;;;;;23.23;100.00;94048.84;5112217;28;20493;-56
2023/08/06 04:40:26;;;;;;;1.97;1.80;;;;;;;23.55;100.00;94040.91;5112295;28;20444;-58
2023/08/06 04:42:56;;;;;;;1.33;1.23;;;;;;;23.55;99.89;94054.44;5112366;28;20470;-57
2023/08/06 04:45:24;;;;;;;1.07;1.07;;;;;;;23.30;100.00;94046.94;5112917;28;20963;-57
2023/08/06 04:47:53;;;;;;;0.77;0.77;;;;;;;23.76;99.80;94052.53;5112000;28;20467;-57
2023/08/06 04:50:21;;;;;;;0.57;0.53;;;;;;;23.54;99.03;94050.16;5112649;28;20461;-57
2023/08/06 04:52:50;;;;;;;12.83;1.37;;;;;;;23.57;97.91;94044.00;5086287;28;20440;-57
2023/08/06 04:55:18;;;;;;;0.90;0.90;;;;;;;23.55;98.40;94030.88;5112002;28;20504;-57
2023/08/06 04:57:47;;;;;;;0.80;0.80;;;;;;;23.51;98.11;94035.47;5112337;28;20964;-58
2023/08/06 05:00:16;;;;;;;1.93;1.83;;;;;;;23.29;100.00;94036.53;5112174;28;20471;-57
2023/08/06 05:02:45;;;;;;;1.63;1.27;;;;;;;23.63;97.81;94029.69;5112267;28;20458;-57
2023/08/06 05:05:13;;;;;;;0.60;0.47;;;;;;;24.10;95.10;94030.59;5112079;28;20439;-57
2023/08/06 05:07:41;;;;;;;5.53;0.80;;;;;;;23.74;92.63;94022.41;5112180;28;20816;-57
2023/08/06 05:10:10;;;;;;;1.53;1.43;;;;;;;23.97;94.86;94017.41;5112065;28;20945;-58
2023/08/06 05:12:38;;;;;;;0.60;0.57;;;;;;;24.39;90.70;94013.19;5111856;28;20443;-58
2023/08/06 05:15:08;;;;;;;0.63;0.63;;;;;;;24.32;89.08;94015.91;5111955;28;20526;-58
2023/08/06 05:17:37;;;;;;;0.50;0.40;;;;;;;24.52;86.79;94015.13;5112085;28;20870;-58
2023/08/06 05:20:07;;;;;;;2.13;0.67;;;;;;;24.57;84.82;94013.97;5111902;28;20444;-58
2023/08/06 05:22:35;;;;;;;0.90;0.87;;;;;;;24.30;83.36;94018.25;5111241;28;20949;-57
2023/08/06 05:25:04;;;;;;;0.40;0.30;;;;;;;24.42;83.61;94017.84;5111326;28;20475;-59
2023/08/06 05:27:33;;;;;;;0.50;0.40;;;;;;;24.36;85.21;94014.00;5112184;28;20439;-60
2023/08/06 05:30:01;;;;;;;0.63;0.40;;;;;;;24.22;82.07;94016.69;5116381;28;20894;-59
2023/08/06 05:32:29;;;;;;;0.53;0.50;;;;;;;24.58;80.59;94015.50;5116452;28;20440;-59
2023/08/06 05:34:59;;;;;;;0.77;0.77;;;;;;;24.80;79.35;94011.63;5116049;28;20506;-59
2023/08/06 05:37:27;;;;;;;0.60;0.60;;;;;;;24.69;79.47;94010.09;5116168;28;20440;-59
2023/08/06 05:39:56;;;;;;;0.60;0.60;;;;;;;24.66;78.09;93997.31;5102677;28;20497;-59
2023/08/06 05:42:24;;;;;;;0.40;0.27;;;;;;;25.23;78.75;94004.16;5116182;28;20816;-60
2023/08/06 05:44:52;;;;;;;2.60;0.40;;;;;;;25.70;76.67;94000.09;5116224;28;20536;-60
2023/08/06 05:47:21;;;;;;;0.50;0.40;;;;;;;25.46;73.22;93992.84;5115276;28;20439;-60
2023/08/06 05:49:49;;;;;;;3.23;0.67;;;;;;;25.34;73.95;93996.75;5116130;28;20436;-61
2023/08/06 05:52:19;;;;;;;0.83;0.63;;;;;;;25.01;73.76;94002.69;5115828;28;20524;-60
2023/08/06 05:54:48;;;;;;;5.07;0.50;;;;;;;24.91;74.69;94015.09;5115915;28;20468;-61
2023/08/06 05:57:16;;;;;;;1.33;0.30;;;;;;;25.27;72.04;93994.81;5115228;28;20435;-61
2023/08/06 05:59:47;;;;;;;0.60;0.60;;;;;;;25.90;72.43;93992.22;5115618;28;20451;-62
2023/08/06 06:02:18;;;;;;;0.63;0.50;;;;;;;26.05;69.90;93986.28;5116069;28;20436;-63
2023/08/06 06:04:47;;;;;;;0.57;0.40;;;;;;;26.31;68.74;94002.00;5114971;28;20524;-63
2023/08/06 06:07:15;;;;;;;0.53;0.50;;;;;;;26.67;67.64;93994.31;5115390;28;20506;-64
2023/08/06 06:09:45;;;;;;;0.60;0.40;;;;;;;26.93;66.81;93993.72;5115567;28;20819;-62
2023/08/06 06:12:13;;;;;;;0.50;0.47;;;;;;;26.97;66.41;93994.44;5115656;28;20971;-57
2023/08/06 06:14:41;;;;;;;1.20;0.70;;;;;;;27.33;65.02;93989.38;5114515;28;20447;-55
2023/08/06 06:17:10;;;;;;;0.50;0.40;;;;;;;27.56;63.50;93997.66;5113976;28;20438;-57
2023/08/06 06:19:38;;;;;;;0.40;0.33;;;;;;;27.88;61.47;94001.91;5111715;28;20431;-56
2023/08/06 06:22:06;;;;;;;0.40;0.30;;;;;;;27.64;61.00;94010.00;5113517;28;20486;-56
2023/08/06 06:24:35;;;;;;;0.80;0.60;;;;;;;28.07;60.01;94004.00;5113266;28;20463;-55
2023/08/06 06:27:06;;;;;;;0.60;0.53;;;;;;;28.33;60.01;94003.22;5112817;28;20451;-55
2023/08/06 06:29:34;;;;;;;0.50;0.50;;;;;;;28.85;58.99;93998.84;5112423;27;20439;-57
2023/08/06 06:32:02;;;;;;;0.60;0.60;;;;;;;29.16;56.51;93999.44;5113634;28;20508;-56
2023/08/06 06:34:31;;;;;;;0.40;0.40;;;;;;;29.38;54.93;94002.53;5114993;28;20438;-56
2023/08/06 06:36:59;;;;;;;0.40;0.30;;;;;;;29.73;55.31;94003.78;5115347;28;20443;-56
2023/08/06 06:39:27;;;;;;;0.40;0.30;;;;;;;29.74;53.51;93992.44;5113848;28;20435;-56
2023/08/06 06:41:57;;;;;;;0.40;0.30;;;;;;;29.99;53.18;93995.41;5115161;28;20432;-56
2023/08/06 06:44:27;;;;;;;0.90;0.90;;;;;;;29.66;50.76;93990.25;5115087;27;20545;-56
2023/08/06 06:46:55;;;;;;;0.50;0.50;;;;;;;29.97;50.76;93988.84;5114583;28;20497;-57
2023/08/06 06:49:23;;;;;;;0.50;0.33;;;;;;;29.99;49.91;93987.22;5114645;28;20458;-56
2023/08/06 06:51:52;;;;;;;0.40;0.30;;;;;;;30.42;49.28;93980.78;5114364;28;20534;-56
2023/08/06 06:54:20;;;;;;;0.30;0.20;;;;;;;30.84;48.40;93985.16;5114306;28;20997;-57
2023/08/06 06:56:49;;;;;;;0.70;0.40;;;;;;;31.10;48.29;93989.59;5114390;28;20505;-57
2023/08/06 06:59:17;;;;;;;0.40;0.30;;;;;;;30.98;47.24;93992.28;5114006;28;20435;-56
2023/08/06 07:01:47;;;;;;;0.40;0.30;;;;;;;30.99;47.06;93996.56;5114110;28;20455;-56
2023/08/06 07:04:15;;;;;;;0.43;0.40;;;;;;;30.96;47.34;94005.63;5088251;28;21006;-56
2023/08/06 07:06:45;;;;;;;0.40;0.30;;;;;;;31.13;48.40;93996.94;5114181;28;20443;-57
2023/08/06 07:09:14;;;;;;;0.40;0.30;;;;;;;31.02;48.96;94001.94;5114495;28;20442;-57
2023/08/06 07:11:43;;;;;;;0.33;0.33;;;;;;;31.12;45.00;93997.41;5113673;28;20431;-57
2023/08/06 07:14:12;;;;;;;0.53;0.50;;;;;;;31.13;44.78;93996.94;5114365;27;20488;-57
2023/08/06 07:16:40;;;;;;;1.97;0.37;;;;;;;30.96;45.68;94008.38;5114004;28;20435;-57
2023/08/06 07:19:10;;;;;;;0.83;0.83;;;;;;;30.27;45.32;94006.88;5114630;28;20557;-57
2023/08/06 07:21:39;;;;;;;0.50;0.50;;;;;;;30.75;45.20;94009.63;5113842;28;20435;-57
2023/08/06 07:24:07;;;;;;;0.40;0.30;;;;;;;30.57;45.01;93979.22;5114088;28;20431;-56
2023/08/06 07:26:35;;;;;;;0.50;0.30;;;;;;;30.83;44.44;94008.28;5113491;28;20431;-57
2023/08/06 07:29:04;;;;;;;0.40;0.30;;;;;;;30.32;44.35;94025.50;5113892;28;20450;-57
2023/08/06 07:31:32;;;;;;;0.73;0.63;;;;;;;30.31;45.37;93991.94;5113393;28;20504;-58
2023/08/06 07:34:00;;;;;;;0.50;0.30;;;;;;;30.85;44.52;94019.53;5113993;28;20446;-58
2023/08/06 07:36:31;;;;;;;0.50;0.47;;;;;;;31.01;44.32;94010.56;5113964;28;20528;-57
2023/08/06 07:39:00;;;;;;;0.40;0.40;;;;;;;30.74;44.62;94017.06;5113605;28;20428;-57
2023/08/06 07:41:28;;;;;;;0.50;0.40;;;;;;;31.13;44.44;94015.34;5086620;28;20795;-57
2023/08/06 07:43:56;;;;;;;0.43;0.40;;;;;;;31.19;43.57;94017.13;5113510;28;20430;-57
2023/08/06 07:46:25;;;;;;;0.50;0.40;;;;;;;30.41;43.59;94023.75;5106082;28;20558;-58
2023/08/06 07:48:53;;;;;;;0.50;0.40;;;;;;;29.21;45.66;94028.22;5107609;28;21083;-59
2023/08/06 07:51:21;;;;;;;0.40;0.30;;;;;;;28.75;46.57;94040.69;5112616;28;20443;-57
2023/08/06 07:53:51;;;;;;;0.50;0.40;;;;;;;29.75;46.17;94047.84;5112961;28;21000;-57
2023/08/06 07:56:19;;;;;;;0.40;0.30;;;;;;;29.97;45.03;94047.00;5113328;28;20447;-57
2023/08/06 07:58:48;;;;;;;0.83;0.83;;;;;;;30.35;44.16;94054.75;5113186;28;20440;-57
2023/08/06 08:01:16;;;;;;;0.60;0.43;;;;;;;30.00;45.13;93994.22;5113528;28;20431;-57
2023/08/06 08:03:45;;;;;;;0.40;0.30;;;;;;;30.72;43.41;94059.72;5112802;28;20423;-56
2023/08/06 08:06:14;;;;;;;0.53;0.50;;;;;;;30.77;43.21;94051.78;5112971;28;20482;-58
2023/08/06 08:08:42;;;;;;;0.40;0.30;;;;;;;31.23;43.43;94055.34;5113069;28;20828;-57
2023/08/06 08:11:12;;;;;;;0.50;0.50;;;;;;;31.58;41.57;94018.03;5113076;28;20998;-58
2023/08/06 08:13:40;;;;;;;0.70;0.70;;;;;;;31.39;41.04;94041.63;5112915;28;20435;-58
2023/08/06 08:16:09;;;;;;;0.50;0.40;;;;;;;31.45;41.26;94039.16;5112674;28;20435;-58
2023/08/06 08:18:37;;;;;;;0.40;0.40;;;;;;;31.69;40.00;94051.38;5112694;28;20443;-58
2023/08/06 08:21:05;;;;;;;1.57;0.70;;;;;;;31.36;40.64;94043.25;5112616;28;20431;-58
2023/08/06 08:23:38;;;;;;;0.40;0.30;;;;;;;31.66;39.40;94052.25;5112743;28;20521;-58
2023/08/06 08:26:09;;;;;;;0.70;0.40;;;;;;;31.99;39.43;94054.44;5112246;28;20469;-58
2023/08/06 08:28:38;;;;;;;0.67;0.67;;;;;;;32.64;39.88;94048.53;5112719;28;20545;-58
2023/08/06 08:31:09;;;;;;;0.40;0.40;;;;;;;31.75;39.52;94027.75;5112786;28;20514;-57
2023/08/06 08:33:37;;;;;;;0.40;0.30;;;;;;;31.38;41.02;94053.75;5113089;28;20507;-58
2023/08/06 08:36:06;;;;;;;0.53;0.47;;;;;;;31.02;41.00;94050.44;5112593;28;20496;-57
2023/08/06 08:38:34;;;;;;;0.40;0.30;;;;;;;30.58;41.78;94057.34;5112585;28;20975;-57
2023/08/06 08:41:02;;;;;;;0.40;0.37;;;;;;;30.15;44.76;94032.94;5112672;28;20431;-57
2023/08/06 08:43:32;;;;;;;0.87;0.40;;;;;;;31.56;45.49;94050.56;5112556;28;20500;-57
2023/08/06 08:46:05;;;;;;;0.40;0.40;;;;;;;32.32;43.38;94044.03;5112557;28;20543;-57
2023/08/06 08:48:33;;;;;;;0.40;0.30;;;;;;;33.51;41.69;94049.56;5112308;28;20512;-57
2023/08/06 08:51:03;;;;;;;0.70;0.60;;;;;;;33.22;42.16;93985.84;5112290;28;20473;-57
2023/08/06 08:53:32;;;;;;;0.60;0.53;;;;;;;33.90;40.43;94037.19;5111372;28;20503;-56
2023/08/06 08:56:01;;;;;;;0.40;0.30;;;;;;;33.97;40.13;94033.41;5112023;28;20439;-56
2023/08/06 08:58:29;;;;;;;0.47;0.30;;;;;;;34.90;39.68;94023.88;5112091;28;20521;-56
2023/08/06 09:01:03;;;;;;;0.40;0.30;;;;;;;34.72;40.34;94032.06;5112263;28;20968;-57
2023/08/06 09:03:33;;;;;;;0.30;0.30;;;;;;;34.78;38.62;94035.78;5112049;28;20496;-56
2023/08/06 09:06:03;;;;;;;0.60;0.40;;;;;;;34.82;38.24;94025.38;5112241;28;20474;-57
2023/08/06 09:08:37;;;;;;;0.40;0.30;;;;;;;35.43;38.04;94027.91;5111955;28;20439;-56
2023/08/06 09:11:09;;;;;;;0.40;0.40;;;;;;;35.63;37.24;94010.94;5112138;28;20442;-55
2023/08/06 09:13:38;;;;;;;0.60;0.60;;;;;;;34.42;37.28;94011.63;5111876;28;20439;-57
2023/08/06 09:16:08;;;;;;;0.70;0.57;;;;;;;34.39;35.42;94001.53;5112312;28;20189;-56
2023/08/06 09:18:40;;;;;;;0.40;0.30;;;;;;;35.33;34.07;94012.59;5111388;28;20189;-57
2023/08/06 09:21:15;;;;;;;0.40;0.30;;;;;;;36.12;35.12;94010.69;5112235;28;20434;-55
2023/08/06 09:23:43;;;;;;;0.77;0.77;;;;;;;35.02;33.78;94015.47;5112129;28;20196;-55
2023/08/06 09:26:13;;;;;;;0.50;0.40;;;;;;;34.97;34.78;94016.06;5111901;28;20649;-54
2023/08/06 09:28:44;;;;;;;0.40;0.30;;;;;;;34.35;35.91;94020.94;5112015;28;20201;-55
2023/08/06 09:31:14;;;;;;;0.40;0.30;;;;;;;34.25;34.02;93988.34;5111618;28;20284;-55
2023/08/06 09:33:44;;;;;;;0.83;0.40;;;;;;;34.25;35.24;94035.09;5111494;28;20484;-55
2023/08/06 09:36:13;;;;;;;0.30;0.30;;;;;;;35.39;34.21;94030.06;5111460;28;20427;-55
2023/08/06 09:38:42;;;;;;;0.80;0.40;;;;;;;34.71;34.47;94025.06;5111935;28;20462;-55
2023/08/06 09:41:10;;;;;;;0.40;0.30;;;;;;;33.57;35.60;94038.78;5111632;28;20185;-55
2023/08/06 09:43:42;;;;;;;0.50;0.40;;;;;;;33.33;36.44;94043.91;5111687;28;20434;-56
2023/08/06 09:46:16;;;;;;;1.00;0.30;;;;;;;32.34;37.30;94049.09;5111880;28;20478;-56
2023/08/06 09:48:48;;;;;;;0.40;0.40;;;;;;;33.15;36.00;94030.78;5110904;28;20520;-55
2023/08/06 09:51:18;;;;;;;0.40;0.30;;;;;;;33.43;36.54;94034.53;5111782;28;20850;-55
2023/08/06 09:53:48;;;;;;;0.30;0.20;;;;;;;33.42;37.08;94040.47;5111597;28;20434;-56
2023/08/06 09:56:18;;;;;;;0.50;0.40;;;;;;;33.01;38.06;94031.25;5111248;28;20442;-57
2023/08/06 09:58:50;;;;;;;0.40;0.40;;;;;;;31.90;39.55;94037.09;5110911;28;20468;-58
2023/08/06 10:01:20;;;;;;;0.40;0.30;;;;;;;31.80;39.50;94040.91;5111970;28;20484;-56
2023/08/06 10:03:52;;;;;;;0.47;0.37;;;;;;;31.74;40.03;94045.38;5111190;28;20510;-57
2023/08/06 10:06:22;;;;;;;0.40;0.40;;;;;;;31.31;40.43;94043.78;5111692;28;20489;-57
2023/08/06 10:08:50;;;;;;;0.60;0.60;;;;;;;30.04;44.38;94038.63;5111667;28;20480;-58
2023/08/06 10:11:22;;;;;;;0.53;0.40;;;;;;;29.43;44.95;94083.94;5111796;28;20458;-59
2023/08/06 10:13:55;;;;;;;0.40;0.40;;;;;;;29.35;45.12;94086.03;5112136;28;20466;-58
2023/08/06 10:16:26;;;;;;;0.50;0.40;;;;;;;29.32;47.15;94095.06;5114915;28;20823;-57
2023/08/06 10:18:55;;;;;;;0.40;0.30;;;;;;;28.76;47.10;94008.75;5090511;28;20442;-60
2023/08/06 10:21:27;;;;;;;0.60;0.53;;;;;;;30.49;44.83;94076.28;5114957;27;20928;-58
2023/08/06 10:23:56;;;;;;;0.40;0.30;;;;;;;31.23;44.10;94058.84;5115180;28;20839;-58
2023/08/06 10:26:27;;;;;;;0.53;0.50;;;;;;;31.78;42.20;94065.19;5114417;28;20863;-57
2023/08/06 10:28:56;;;;;;;0.40;0.40;;;;;;;31.99;41.35;94070.88;5114917;28;20981;-57
2023/08/06 10:31:56;;;;;;;0.50;0.50;;;;;;;33.09;39.61;94051.78;5115335;28;20453;-57
2023/08/06 10:34:24;;;;;;;1.50;1.07;;;;;;;33.48;38.49;94055.16;5056125;28;20447;-57
2023/08/06 10:36:56;;;;;;;0.40;0.33;;;;;;;32.70;39.10;94048.75;5115142;28;20430;-58
2023/08/06 10:39:25;;;;;;;0.40;0.30;;;;;;;32.80;38.89;94045.69;5115010;27;20422;-57
2023/08/06 10:41:58;;;;;;;0.40;0.30;;;;;;;32.35;38.69;94045.16;5114541;28;20521;-57
2023/08/06 10:44:27;;;;;;;0.40;0.40;;;;;;;32.35;37.85;94051.41;5114155;28;20450;-58
2023/08/06 10:47:29;;;;;;;0.30;0.30;;;;;;;32.55;36.94;94049.22;5114424;28;20542;-57
2023/08/06 10:49:58;;;;;;;0.40;0.30;;;;;;;31.77;39.15;94061.72;5073903;28;20472;-57
2023/08/06 10:52:27;;;;;;;4.00;1.43;;;;;;;31.51;39.28;94008.06;5073260;28;20437;-57
2023/08/06 10:54:56;;;;;;;0.40;0.40;;;;;;;31.58;39.40;94043.47;5074468;28;20436;-57
2023/08/06 10:57:25;;;;;;;0.40;0.30;;;;;;;31.64;38.63;94062.88;5073701;28;20425;-57
2023/08/06 10:59:53;;;;;;;0.40;0.30;;;;;;;32.43;37.35;94052.72;5074108;28;21092;-57
2023/08/06 11:02:43;;;;;;;0.40;0.30;;;;;;;32.56;37.27;94055.50;5073935;28;20451;-57
2023/08/06 11:05:12;;;;;;;0.87;0.87;;;;;;;32.17;37.15;94037.47;5074061;28;20440;-57
2023/08/06 11:07:42;;;;;;;0.90;0.50;;;;;;;32.40;37.82;94020.69;5074193;28;20487;-57
2023/08/06 11:10:12;;;;;;;3.90;1.47;;;;;;;32.89;36.70;94042.28;5060520;28;20483;-57
2023/08/06 11:12:41;;;;;;;0.60;0.60;;;;;;;33.16;34.57;94026.84;5074023;28;20851;-55
2023/08/06 11:15:10;;;;;;;0.40;0.40;;;;;;;32.92;34.94;94036.66;5072756;28;20494;-55
2023/08/06 11:17:41;;;;;;;0.50;0.40;;;;;;;32.89;36.09;94045.03;5073271;28;20436;-57
2023/08/06 11:20:11;;;;;;;0.40;0.30;;;;;;;32.66;36.75;94039.88;5073096;28;20436;-57
2023/08/06 11:22:43;;;;;;;0.73;0.30;;;;;;;31.93;37.96;94069.06;5073604;28;20432;-57
2023/08/06 11:25:11;;;;;;;0.40;0.33;;;;;;;32.74;37.19;94060.41;5072450;28;21161;-57
2023/08/06 11:27:39;;;;;;;0.40;0.30;;;;;;;32.78;36.29;94078.28;5073449;28;20468;-56
2023/08/06 11:30:11;;;;;;;0.47;0.30;;;;;;;31.98;37.80;94047.41;5073591;28;20429;-57
2023/08/06 11:32:47;;;;;;;0.40;0.37;;;;;;;31.77;38.69;94077.38;5072932;28;20443;-56
2023/08/06 11:35:17;;;;;;;0.50;0.40;;;;;;;32.46;36.06;94031.88;5073219;28;20428;-57
2023/08/06 11:37:46;;;;;;;0.50;0.40;;;;;;;32.96;35.81;94048.28;5072605;28;20444;-57
2023/08/06 11:40:16;;;;;;;0.40;0.40;;;;;;;32.49;36.11;94075.63;5073528;28;20437;-57
2023/08/06 11:42:44;;;;;;;0.77;0.40;;;;;;;32.95;35.49;94078.91;5073061;28;20961;-57